Time;durP1;ratioP1;P1;durP2;ratioP2;P2;SDS_P1;SDS_P2;PMS_P1;PMS_P2;Temp;Humidity;BMP_temperature;BMP_pressure;BME280_temperature;BME280_humidity;BME280_pressure;Samples;Min_cycle;Max_cycle;Signal;HPM_P1;HPM_P2
2023/12/28 00:05:41;;;;;;;43.00;17.50;;;;;;;3.35;91.31;100570.61;676358;1277;139351;-80
2023/12/28 00:20:45;;;;;;;37.80;16.00;;;;;;;3.29;92.15;100561.60;678095;1260;139715;-81
2023/12/28 00:35:48;;;;;;;43.00;17.10;;;;;;;3.29;92.34;100550.84;675020;1264;139675;-81
2023/12/28 00:50:55;;;;;;;41.50;17.80;;;;;;;3.19;92.24;100519.27;676382;1259;140263;-80
2023/12/28 01:05:59;;;;;;;48.60;17.80;;;;;;;3.10;93.09;100498.79;676681;1265;140101;-81
2023/12/28 01:21:03;;;;;;;43.10;18.70;;;;;;;3.00;93.16;100497.77;676043;1263;140308;-80
2023/12/28 01:36:22;;;;;;;60.50;19.60;;;;;;;2.93;92.85;100479.45;675325;1263;140288;-81
2023/12/28 01:51:28;;;;;;;56.90;21.90;;;;;;;2.86;92.72;100435.11;677595;1261;139812;-81
2023/12/28 02:06:33;;;;;;;68.50;24.90;;;;;;;2.84;94.32;100403.25;677466;1262;139570;-81
2023/12/28 02:21:37;;;;;;;68.20;25.90;;;;;;;2.92;95.81;100373.61;679683;1264;139912;-80
2023/12/28 02:36:46;;;;;;;94.20;29.70;;;;;;;2.93;97.45;100337.11;676049;1262;139819;-82
2023/12/28 02:51:50;;;;;;;92.10;29.00;;;;;;;2.97;98.48;100315.97;675556;1263;140147;-81
2023/12/28 03:06:53;;;;;;;83.10;27.30;;;;;;;3.18;98.35;100279.20;675127;1265;139435;-81
2023/12/28 03:21:58;;;;;;;80.60;25.50;;;;;;;3.25;98.99;100251.48;675180;1264;139260;-81
2023/12/28 03:37:05;;;;;;;83.90;30.00;;;;;;;3.30;98.61;100195.52;674820;1264;138882;-81
2023/12/28 03:52:10;;;;;;;;;;;;;;;3.29;98.82;100160.15;675060;1265;139178;-81
2023/12/28 04:07:16;;;;;;;52.50;19.20;;;;;;;3.45;98.98;100110.59;676712;1265;126329;-80
2023/12/28 04:22:21;;;;;;;52.50;20.50;;;;;;;3.47;97.96;100057.77;675426;1265;139369;-81
2023/12/28 04:37:26;;;;;;;45.60;17.00;;;;;;;3.43;97.81;100006.14;674242;1265;139361;-81
2023/12/28 04:52:31;;;;;;;37.80;15.10;;;;;;;3.54;96.00;100002.55;674040;1265;139539;-81
2023/12/28 05:07:36;;;;;;;47.70;22.00;;;;;;;3.72;94.25;100011.37;681670;1264;139052;-81
2023/12/28 05:22:39;;;;;;;39.90;15.60;;;;;;;3.63;93.50;99958.36;681400;1265;139588;-81
2023/12/28 05:37:43;;;;;;;32.70;15.50;;;;;;;3.63;93.43;99941.11;681444;1265;138933;-81
2023/12/28 05:52:48;;;;;;;45.40;17.00;;;;;;;3.73;92.53;99941.31;681379;1275;140130;-81
2023/12/28 06:07:54;;;;;;;49.30;21.80;;;;;;;3.69;92.22;99934.77;681562;1275;140474;-80
2023/12/28 06:22:58;;;;;;;35.00;18.70;;;;;;;3.59;92.43;99872.66;681377;1265;139435;-81
2023/12/28 06:38:03;;;;;;;59.00;21.70;;;;;;;3.86;92.27;99865.92;681348;1262;139111;-81
2023/12/28 06:53:10;;;;;;;62.70;29.30;;;;;;;3.88;92.58;99859.23;681388;1265;138752;-79
2023/12/28 07:08:14;;;;;;;68.30;29.40;;;;;;;4.03;92.74;99865.27;681358;1265;139364;-82
2023/12/28 07:23:19;;;;;;;76.50;32.20;;;;;;;4.25;92.27;99886.13;681020;1265;138941;-81
2023/12/28 07:38:23;;;;;;;45.00;21.20;;;;;;;4.43;91.53;99887.30;681189;1266;139516;-81
2023/12/28 07:53:32;;;;;;;44.70;18.90;;;;;;;4.49;92.68;99891.41;681431;1265;138652;-82
2023/12/28 08:08:37;;;;;;;71.20;27.90;;;;;;;4.79;92.50;99876.71;681429;1265;139126;-82
2023/12/28 08:23:41;;;;;;;79.20;34.90;;;;;;;5.06;91.98;99901.52;681240;1265;139056;-82
2023/12/28 08:38:45;;;;;;;45.80;21.70;;;;;;;5.25;92.32;99898.78;681350;1267;140194;-80
2023/12/28 08:53:49;;;;;;;41.80;19.60;;;;;;;5.57;92.02;99916.23;681545;1265;139494;-83
2023/12/28 09:08:54;;;;;;;47.10;20.50;;;;;;;5.67;92.62;99932.87;681244;1262;139502;-84
2023/12/28 09:23:58;;;;;;;40.20;20.10;;;;;;;5.79;94.20;99912.77;681212;1263;156755;-84
2023/12/28 09:39:04;;;;;;;49.00;22.50;;;;;;;5.85;95.89;99909.17;681349;1265;139379;-84
2023/12/28 09:54:12;;;;;;;53.30;24.50;;;;;;;6.14;97.02;99916.39;681680;1265;138678;-84
2023/12/28 10:09:16;;;;;;;196.70;81.70;;;;;;;6.36;96.76;99924.48;681465;1264;139422;-85
2023/12/28 10:24:21;;;;;;;193.20;62.10;;;;;;;6.52;97.20;99915.61;681525;1266;139447;-85
2023/12/28 10:39:27;;;;;;;122.90;55.00;;;;;;;6.70;97.59;99908.04;681427;1267;139193;-83
2023/12/28 10:54:47;;;;;;;139.80;61.50;;;;;;;6.87;98.06;99909.48;681624;1263;138597;-86
2023/12/28 11:09:51;;;;;;;110.20;44.20;;;;;;;7.08;98.21;99910.61;681501;1274;139306;-84
2023/12/28 11:24:56;;;;;;;146.50;48.80;;;;;;;7.36;97.60;99904.54;681446;1263;139360;-83
2023/12/28 11:40:23;;;;;;;47.70;21.20;;;;;;;7.49;97.25;99893.79;681488;1266;139624;-83
2023/12/28 11:55:27;;;;;;;97.30;29.50;;;;;;;7.64;97.11;99885.77;681517;1261;139568;-83
2023/12/28 12:10:32;;;;;;;83.20;26.50;;;;;;;7.78;97.61;99886.70;681437;1264;139331;-84
2023/12/28 12:25:35;;;;;;;81.50;24.40;;;;;;;8.07;97.18;99878.93;681262;1264;139346;-84
2023/12/28 12:40:39;;;;;;;43.80;18.70;;;;;;;8.20;96.87;99871.75;681462;1274;138780;-84
2023/12/28 12:55:46;;;;;;;354.50;62.20;;;;;;;8.33;96.77;99868.73;681453;1263;139539;-82
2023/12/28 13:10:51;;;;;;;23.90;12.40;;;;;;;8.37;96.55;99871.91;681359;1265;139913;-83
2023/12/28 13:25:57;;;;;;;25.90;13.70;;;;;;;8.03;96.92;99863.59;681522;1260;138502;-84
2023/12/28 13:41:05;;;;;;;28.80;16.50;;;;;;;7.96;96.91;99874.27;681344;1266;138582;-83
2023/12/28 13:56:09;;;;;;;31.10;16.60;;;;;;;7.92;96.91;99881.19;681547;1263;139626;-83
2023/12/28 14:11:14;;;;;;;67.40;28.80;;;;;;;7.69;97.31;99883.14;681517;1264;138742;-83
2023/12/28 14:26:19;;;;;;;40.10;18.50;;;;;;;7.54;97.84;99892.84;681212;1266;138465;-84
2023/12/28 14:41:24;;;;;;;32.80;14.80;;;;;;;7.20;97.79;99866.00;681534;1264;138438;-83
2023/12/28 14:56:29;;;;;;;46.80;23.60;;;;;;;7.05;98.28;99830.73;681339;1275;139542;-82
2023/12/28 15:11:47;;;;;;;38.40;18.10;;;;;;;7.03;98.05;99845.11;681339;1266;139195;-82
2023/12/28 15:26:52;;;;;;;62.70;33.70;;;;;;;6.85;97.47;99868.44;681350;1262;139480;-82
2023/12/28 15:41:56;;;;;;;37.60;20.30;;;;;;;6.72;97.95;99880.20;681514;1262;139390;-82
2023/12/28 15:57:00;;;;;;;36.50;19.90;;;;;;;6.82;99.12;99873.53;681053;1265;139567;-81
2023/12/28 16:12:08;;;;;;;30.00;15.70;;;;;;;6.99;99.08;99865.92;681327;1263;138561;-82
2023/12/28 16:27:21;;;;;;;36.80;16.40;;;;;;;6.99;98.94;99862.30;681387;1262;139158;-81
2023/12/28 16:42:27;;;;;;;33.20;20.50;;;;;;;6.86;98.05;99865.25;681341;1262;139308;-82
2023/12/28 16:57:32;;;;;;;32.60;16.70;;;;;;;6.73;97.77;99870.27;681212;1263;140581;-82
2023/12/28 17:12:43;;;;;;;39.90;20.30;;;;;;;6.60;98.05;99868.95;681371;1262;139233;-81
2023/12/28 17:27:55;;;;;;;33.80;20.50;;;;;;;6.62;99.19;99870.36;681230;1261;139552;-82
2023/12/28 17:43:16;;;;;;;137.90;79.00;;;;;;;6.75;98.56;99868.02;681494;1260;138630;-82
2023/12/28 17:58:20;;;;;;;33.80;15.80;;;;;;;6.66;99.39;99866.11;681393;1262;139963;-81
2023/12/28 18:13:24;;;;;;;96.90;52.30;;;;;;;6.66;99.25;99869.92;681447;1264;139094;-80
2023/12/28 18:28:28;;;;;;;48.10;22.30;;;;;;;6.58;99.17;99869.81;681448;1265;138665;-82
2023/12/28 18:43:34;;;;;;;30.50;15.90;;;;;;;6.66;99.60;99865.36;681558;1275;138578;-82
2023/12/28 18:58:39;;;;;;;30.60;14.70;;;;;;;6.77;99.64;99855.31;681252;1265;139200;-81
2023/12/28 19:13:43;;;;;;;79.70;31.30;;;;;;;6.92;99.93;99841.11;681353;1262;139046;-81
2023/12/28 19:28:50;;;;;;;61.70;26.60;;;;;;;7.16;99.80;99839.02;681342;1265;138780;-82
2023/12/28 19:43:55;;;;;;;97.30;34.60;;;;;;;7.44;98.59;99845.95;681540;1263;140170;-82
2023/12/28 19:59:00;;;;;;;23.90;12.70;;;;;;;7.73;98.57;99839.29;681393;1264;139235;-82
2023/12/28 20:14:05;;;;;;;22.70;10.00;;;;;;;7.91;98.09;99829.91;681497;1260;138804;-82
2023/12/28 20:29:10;;;;;;;21.10;8.70;;;;;;;8.29;97.40;99828.27;681513;1265;138593;-81
2023/12/28 20:44:18;;;;;;;28.60;9.60;;;;;;;8.56;96.15;99833.01;681494;1262;139137;-84
2023/12/28 20:59:23;;;;;;;14.20;7.50;;;;;;;8.70;94.87;99831.09;681520;1264;139578;-82
2023/12/28 21:14:28;;;;;;;16.50;7.80;;;;;;;8.75;93.92;99829.93;681449;1265;139836;-82
2023/12/28 21:29:33;;;;;;;22.10;10.40;;;;;;;8.85;92.60;99836.20;681512;1262;179692;-82
2023/12/28 21:44:38;;;;;;;24.90;12.30;;;;;;;8.84;91.93;99838.89;681550;1263;139169;-81
2023/12/28 21:59:47;;;;;;;22.90;10.20;;;;;;;8.90;90.99;99822.20;681511;1264;138922;-82
2023/12/28 22:14:52;;;;;;;16.10;7.70;;;;;;;8.94;90.30;99811.40;681374;1265;138868;-81
2023/12/28 22:29:57;;;;;;;20.80;8.20;;;;;;;8.98;89.61;99814.37;681646;1263;139892;-81
2023/12/28 22:45:02;;;;;;;13.60;7.30;;;;;;;8.99;89.31;99813.73;681543;1265;139672;-79
2023/12/28 23:00:16;;;;;;;16.80;8.30;;;;;;;8.97;88.79;99807.80;681562;1265;139461;-80
2023/12/28 23:15:20;;;;;;;12.80;7.20;;;;;;;8.99;88.75;99808.98;681506;1265;138646;-82
2023/12/28 23:30:24;;;;;;;15.10;7.50;;;;;;;8.90;89.14;99796.05;681689;1265;138399;-82
2023/12/28 23:45:29;;;;;;;17.10;7.00;;;;;;;8.87;89.55;99790.16;681516;1265;139977;-82
